Time;durP1;ratioP1;P1;durP2;ratioP2;P2;SDS_P1;SDS_P2;PMS_P1;PMS_P2;Temp;Humidity;BMP_temperature;BMP_pressure;BME280_temperature;BME280_humidity;BME280_pressure;Samples;Min_cycle;Max_cycle;Signal;HPM_P1;HPM_P2
2024/01/04 00:00:30;;;;;;;0.45;0.43;;;18.20;50.70;;;;;;5149207;27;45285;-64
2024/01/04 00:02:58;;;;;;;0.57;0.52;;;18.20;50.70;;;;;;5146803;27;45193;-65
2024/01/04 00:05:25;;;;;;;0.82;0.40;;;18.20;50.70;;;;;;5149127;27;45534;-65
2024/01/04 00:07:52;;;;;;;0.50;0.45;;;18.20;50.80;;;;;;5149084;27;45359;-65
2024/01/04 00:10:19;;;;;;;1.27;0.52;;;18.10;50.80;;;;;;5149265;27;45311;-65
2024/01/04 00:12:47;;;;;;;0.88;0.50;;;18.10;50.80;;;;;;5149362;27;45227;-65
2024/01/04 00:15:14;;;;;;;0.40;0.30;;;18.10;50.80;;;;;;5148733;27;45356;-65
2024/01/04 00:17:41;;;;;;;0.52;0.50;;;18.10;50.80;;;;;;5148985;27;45297;-65
2024/01/04 00:20:10;;;;;;;1.38;0.47;;;18.10;50.80;;;;;;5149252;27;45287;-66
2024/01/04 00:22:37;;;;;;;2.03;0.70;;;18.10;50.80;;;;;;5155564;27;45390;-65
2024/01/04 00:25:05;;;;;;;0.60;0.40;;;18.00;50.80;;;;;;5169483;27;46346;-64
2024/01/04 00:27:32;;;;;;;0.68;0.60;;;18.00;50.80;;;;;;5169649;27;45436;-65
2024/01/04 00:29:58;;;;;;;1.48;0.50;;;18.00;50.80;;;;;;5169853;27;45289;-66
2024/01/04 00:32:26;;;;;;;1.27;0.65;;;18.00;50.80;;;;;;5169800;27;45402;-65
2024/01/04 00:34:53;;;;;;;1.27;0.50;;;18.00;50.80;;;;;;5169300;27;47265;-65
2024/01/04 00:37:21;;;;;;;1.10;0.40;;;18.00;50.90;;;;;;5169611;27;45272;-64
2024/01/04 00:39:48;;;;;;;2.05;0.80;;;17.90;50.80;;;;;;5169449;27;45320;-65
2024/01/04 00:42:15;;;;;;;1.73;0.52;;;17.90;50.80;;;;;;5169783;27;45303;-64
2024/01/04 00:44:42;;;;;;;1.05;0.57;;;17.90;50.90;;;;;;5169571;27;47591;-65
2024/01/04 00:47:09;;;;;;;2.08;0.50;;;17.90;50.90;;;;;;5169397;27;45197;-64
2024/01/04 00:49:35;;;;;;;0.40;0.40;;;17.90;50.90;;;;;;5169478;27;45582;-65
2024/01/04 00:52:01;;;;;;;2.15;0.40;;;17.90;50.90;;;;;;5169631;27;45463;-65
2024/01/04 00:54:29;;;;;;;0.43;0.30;;;17.90;50.90;;;;;;5169324;27;45286;-64
2024/01/04 00:56:57;;;;;;;2.80;0.50;;;17.80;50.80;;;;;;5169369;27;45297;-65
2024/01/04 00:59:24;;;;;;;0.52;0.50;;;17.80;50.80;;;;;;5168894;27;45191;-65
2024/01/04 01:01:51;;;;;;;1.00;0.43;;;17.80;50.90;;;;;;5169552;27;45413;-65
2024/01/04 01:04:18;;;;;;;0.40;0.25;;;17.80;50.90;;;;;;5169275;27;45260;-65
2024/01/04 01:06:48;;;;;;;2.05;0.50;;;17.80;50.80;;;;;;5169090;27;45454;-66
2024/01/04 01:09:15;;;;;;;0.93;0.50;;;17.70;50.80;;;;;;5169392;27;45202;-65
2024/01/04 01:11:43;;;;;;;1.58;0.47;;;17.70;50.90;;;;;;5169222;27;45450;-65
2024/01/04 01:14:12;;;;;;;0.43;0.38;;;17.70;50.90;;;;;;5169008;27;47348;-65
2024/01/04 01:16:39;;;;;;;0.82;0.47;;;17.70;50.90;;;;;;5168958;27;45377;-64
2024/01/04 01:19:06;;;;;;;1.45;0.50;;;17.70;50.90;;;;;;5169265;27;45272;-65
2024/01/04 01:21:33;;;;;;;0.50;0.50;;;17.70;50.90;;;;;;5169039;27;45630;-65
2024/01/04 01:24:00;;;;;;;1.60;0.45;;;17.70;50.90;;;;;;5168634;27;46455;-64
2024/01/04 01:26:27;;;;;;;1.77;0.43;;;17.70;50.90;;;;;;5168900;27;45139;-64
2024/01/04 01:28:55;;;;;;;1.75;0.93;;;17.60;50.90;;;;;;5168740;27;45260;-65
2024/01/04 01:31:22;;;;;;;0.60;0.60;;;17.60;50.90;;;;;;5169235;27;45398;-65
2024/01/04 01:33:48;;;;;;;2.05;0.50;;;17.60;50.90;;;;;;5168634;27;45434;-65
2024/01/04 01:36:15;;;;;;;1.95;0.57;;;17.60;50.80;;;;;;5153991;27;45377;-65
2024/01/04 01:38:42;;;;;;;1.70;0.70;;;17.60;50.90;;;;;;5147997;27;45252;-65
2024/01/04 01:41:09;;;;;;;0.40;0.35;;;17.60;50.90;;;;;;5131744;27;45401;-64
2024/01/04 01:43:36;;;;;;;1.38;0.80;;;17.60;50.90;;;;;;5126626;27;45496;-65
2024/01/04 01:46:04;;;;;;;0.52;0.30;;;17.50;50.80;;;;;;5126249;27;45438;-65
2024/01/04 01:48:31;;;;;;;0.73;0.40;;;17.50;50.80;;;;;;5126696;27;45284;-63
2024/01/04 01:50:59;;;;;;;0.32;0.30;;;17.50;50.80;;;;;;5127016;27;45273;-64
2024/01/04 01:53:26;;;;;;;0.57;0.43;;;17.50;50.90;;;;;;5126541;27;45233;-66
2024/01/04 01:55:53;;;;;;;1.80;0.60;;;17.50;50.90;;;;;;5126780;27;45393;-65
2024/01/04 01:58:21;;;;;;;0.52;0.50;;;17.50;50.90;;;;;;5126720;27;45360;-65
2024/01/04 02:00:48;;;;;;;1.08;0.52;;;17.40;50.90;;;;;;5126993;27;45404;-64
2024/01/04 02:03:16;;;;;;;0.32;0.28;;;17.40;50.90;;;;;;5126466;27;45512;-65
2024/01/04 02:05:43;;;;;;;0.57;0.57;;;17.40;50.90;;;;;;5126759;27;45362;-65
2024/01/04 02:08:10;;;;;;;1.83;0.55;;;17.40;50.90;;;;;;5126735;27;45324;-65
2024/01/04 02:10:37;;;;;;;1.10;0.43;;;17.40;51.00;;;;;;5128342;27;45259;-66
2024/01/04 02:13:04;;;;;;;1.02;0.50;;;17.40;51.00;;;;;;5140954;27;45318;-65
2024/01/04 02:15:31;;;;;;;0.75;0.60;;;17.40;51.00;;;;;;5150963;27;45282;-65
2024/01/04 02:17:58;;;;;;;1.00;0.50;;;17.40;51.00;;;;;;5150989;27;45298;-66
2024/01/04 02:20:26;;;;;;;1.08;0.45;;;17.30;51.00;;;;;;5151213;27;45380;-66
2024/01/04 02:22:54;;;;;;;0.45;0.35;;;17.40;51.00;;;;;;5150594;27;46414;-66
2024/01/04 02:25:21;;;;;;;0.38;0.30;;;17.30;51.00;;;;;;5150701;27;45197;-66
2024/01/04 02:27:48;;;;;;;2.33;0.50;;;17.30;51.10;;;;;;5151258;27;45328;-66
2024/01/04 02:30:15;;;;;;;0.95;0.70;;;17.30;51.10;;;;;;5151027;27;45383;-66
2024/01/04 02:32:41;;;;;;;0.63;0.40;;;17.30;51.00;;;;;;5150365;27;46471;-66
2024/01/04 02:35:09;;;;;;;1.00;0.80;;;17.30;51.10;;;;;;5150619;27;45316;-66
2024/01/04 02:37:36;;;;;;;1.05;0.30;;;17.30;51.10;;;;;;5150860;27;45199;-67
2024/01/04 02:40:04;;;;;;;0.43;0.38;;;17.30;51.10;;;;;;5150590;27;45162;-66
2024/01/04 02:42:32;;;;;;;0.95;0.55;;;17.20;51.00;;;;;;5150232;27;46681;-66
2024/01/04 02:44:58;;;;;;;1.23;0.47;;;17.20;51.00;;;;;;5150203;27;45214;-65
2024/01/04 02:47:28;;;;;;;0.40;0.40;;;17.20;51.00;;;;;;5149668;27;45302;-67
2024/01/04 02:49:54;;;;;;;1.80;0.60;;;17.20;51.00;;;;;;5150297;27;45318;-66
2024/01/04 02:52:21;;;;;;;0.60;0.40;;;17.20;51.00;;;;;;5149420;27;46520;-65
2024/01/04 02:54:47;;;;;;;0.50;0.40;;;17.20;51.00;;;;;;5150076;27;45409;-65
2024/01/04 02:57:15;;;;;;;1.08;0.50;;;17.20;51.00;;;;;;5150307;27;45288;-66
2024/01/04 02:59:42;;;;;;;0.35;0.30;;;17.20;51.10;;;;;;5150555;27;45187;-65
2024/01/04 03:02:09;;;;;;;1.17;0.55;;;17.20;51.00;;;;;;5150137;27;46262;-66
2024/01/04 03:04:36;;;;;;;0.95;0.40;;;17.20;51.00;;;;;;5147441;27;45375;-66
2024/01/04 03:07:03;;;;;;;0.28;0.28;;;17.10;51.00;;;;;;5150318;27;45322;-65
2024/01/04 03:09:30;;;;;;;1.52;0.50;;;17.10;51.10;;;;;;5150312;27;45190;-66
2024/01/04 03:11:57;;;;;;;1.75;0.65;;;17.10;51.10;;;;;;5149978;27;47394;-65
2024/01/04 03:14:25;;;;;;;1.20;0.63;;;17.10;51.00;;;;;;5147180;27;45442;-66
2024/01/04 03:16:52;;;;;;;1.00;0.40;;;17.10;51.00;;;;;;5150357;27;45308;-66
2024/01/04 03:19:19;;;;;;;0.75;0.50;;;17.10;51.00;;;;;;5150391;27;45367;-66
2024/01/04 03:21:46;;;;;;;0.73;0.40;;;17.10;51.00;;;;;;5149587;27;45289;-65
2024/01/04 03:24:12;;;;;;;1.02;0.32;;;17.10;51.10;;;;;;5163493;27;45249;-65
2024/01/04 03:26:39;;;;;;;1.08;0.52;;;17.00;51.60;;;;;;5169381;27;45408;-64
2024/01/04 03:29:06;;;;;;;0.38;0.38;;;17.00;51.00;;;;;;5170933;27;45364;-64
2024/01/04 03:31:34;;;;;;;1.52;0.43;;;17.00;51.00;;;;;;5170584;27;46710;-64
2024/01/04 03:34:01;;;;;;;0.30;0.30;;;17.00;51.00;;;;;;5170727;27;45917;-64
2024/01/04 03:36:28;;;;;;;2.25;0.40;;;17.00;51.60;;;;;;5170183;27;45254;-65
2024/01/04 03:38:55;;;;;;;0.30;0.30;;;17.00;51.00;;;;;;5170795;27;45268;-65
2024/01/04 03:41:22;;;;;;;0.93;0.50;;;17.00;51.10;;;;;;5169793;27;45649;-65
2024/01/04 03:43:49;;;;;;;1.10;0.52;;;17.00;51.10;;;;;;5170548;27;45283;-64
2024/01/04 03:46:16;;;;;;;0.63;0.40;;;17.00;51.00;;;;;;5170422;27;45335;-65
2024/01/04 03:48:44;;;;;;;0.52;0.50;;;16.90;51.00;;;;;;5170687;27;45139;-65
2024/01/04 03:51:12;;;;;;;0.38;0.38;;;16.90;51.10;;;;;;5154601;27;46250;-65
2024/01/04 03:53:38;;;;;;;1.00;0.45;;;16.90;51.10;;;;;;5149536;27;45387;-64
2024/01/04 03:56:05;;;;;;;0.52;0.20;;;16.90;51.10;;;;;;5149670;27;45168;-65
2024/01/04 03:58:34;;;;;;;0.68;0.32;;;16.90;51.10;;;;;;5149719;27;45279;-64
2024/01/04 04:01:02;;;;;;;2.05;0.57;;;16.90;51.10;;;;;;5149620;27;46348;-65
2024/01/04 04:03:29;;;;;;;0.63;0.50;;;16.90;51.10;;;;;;5149412;27;45390;-65
2024/01/04 04:05:57;;;;;;;1.33;0.63;;;16.90;51.10;;;;;;5149274;27;45145;-65
2024/01/04 04:08:24;;;;;;;0.88;0.60;;;16.90;51.20;;;;;;5149497;27;45134;-65
2024/01/04 04:10:51;;;;;;;2.88;0.40;;;16.90;51.20;;;;;;5149022;27;46725;-64
2024/01/04 04:13:18;;;;;;;0.47;0.40;;;16.90;51.20;;;;;;5149452;27;45414;-64
2024/01/04 04:15:45;;;;;;;1.52;0.43;;;17.00;51.10;;;;;;5146770;27;45264;-64
2024/01/04 04:18:12;;;;;;;0.73;0.40;;;17.00;51.00;;;;;;5149193;27;45183;-64
2024/01/04 04:20:39;;;;;;;1.23;0.43;;;17.10;50.80;;;;;;5148728;27;46153;-64
2024/01/04 04:23:07;;;;;;;0.75;0.30;;;17.20;50.60;;;;;;5152792;27;45465;-66
2024/01/04 04:25:36;;;;;;;0.95;0.50;;;17.30;50.40;;;;;;5169952;27;45328;-64
2024/01/04 04:28:03;;;;;;;0.70;0.40;;;17.40;50.20;;;;;;5169884;27;45402;-64
2024/01/04 04:30:30;;;;;;;1.15;0.57;;;17.50;50.00;;;;;;5169708;27;46302;-64
2024/01/04 04:32:57;;;;;;;0.88;0.35;;;17.50;49.80;;;;;;5168868;27;45379;-64
2024/01/04 04:35:23;;;;;;;0.30;0.30;;;17.70;49.60;;;;;;5169814;27;45260;-64
2024/01/04 04:37:50;;;;;;;0.40;0.40;;;17.80;49.40;;;;;;5169980;27;45428;-65
2024/01/04 04:40:18;;;;;;;0.85;0.47;;;17.90;49.20;;;;;;5169164;27;45237;-65
2024/01/04 04:42:45;;;;;;;0.30;0.30;;;18.00;49.00;;;;;;5169486;27;45247;-65
2024/01/04 04:45:12;;;;;;;1.05;0.40;;;18.00;48.80;;;;;;5169527;27;44698;-64
2024/01/04 04:47:39;;;;;;;0.82;0.50;;;18.10;48.70;;;;;;5170497;27;45549;-65
2024/01/04 04:50:08;;;;;;;0.90;0.38;;;18.10;48.40;;;;;;5169227;27;46397;-65
2024/01/04 04:52:34;;;;;;;0.43;0.40;;;18.30;48.30;;;;;;5169761;27;45434;-64
2024/01/04 04:55:01;;;;;;;0.85;0.40;;;18.30;48.20;;;;;;5169354;27;45239;-65
2024/01/04 04:57:30;;;;;;;0.40;0.40;;;18.40;48.10;;;;;;5169500;27;45423;-64
2024/01/04 04:59:57;;;;;;;1.20;0.50;;;18.40;48.00;;;;;;5169024;27;45247;-66
2024/01/04 05:02:23;;;;;;;3.60;0.80;;;18.50;47.90;;;;;;5169164;27;45244;-65
2024/01/04 05:04:50;;;;;;;0.25;0.17;;;18.60;47.80;;;;;;5169278;27;45386;-65
2024/01/04 05:07:17;;;;;;;0.50;0.40;;;18.60;47.80;;;;;;5169379;27;45446;-65
2024/01/04 05:09:44;;;;;;;0.60;0.40;;;18.60;47.60;;;;;;5168991;27;45352;-66
2024/01/04 05:12:11;;;;;;;0.68;0.30;;;18.70;47.60;;;;;;5169231;27;45160;-65
2024/01/04 05:14:39;;;;;;;0.85;0.22;;;18.70;47.50;;;;;;5169315;27;45293;-65
2024/01/04 05:17:06;;;;;;;1.33;0.32;;;18.80;47.40;;;;;;5169611;27;45452;-65
2024/01/04 05:19:33;;;;;;;0.88;0.50;;;18.80;47.40;;;;;;5169319;27;45425;-65
2024/01/04 05:22:03;;;;;;;0.85;0.50;;;18.80;47.30;;;;;;5167906;27;45433;-65
2024/01/04 05:24:30;;;;;;;0.55;0.30;;;18.80;47.20;;;;;;5148201;27;45294;-66
2024/01/04 05:26:57;;;;;;;0.82;0.22;;;18.90;47.20;;;;;;5148282;27;45417;-65
2024/01/04 05:29:25;;;;;;;0.85;0.47;;;18.90;47.20;;;;;;5167209;27;46684;-66
2024/01/04 05:31:53;;;;;;;0.50;0.38;;;18.90;47.10;;;;;;5168847;27;45202;-65
2024/01/04 05:34:20;;;;;;;1.85;0.40;;;18.90;47.10;;;;;;5169174;27;44618;-66
2024/01/04 05:36:47;;;;;;;2.13;0.30;;;19.00;47.10;;;;;;5169153;27;45347;-65
2024/01/04 05:39:14;;;;;;;0.40;0.40;;;19.00;47.00;;;;;;5168353;27;46675;-65
2024/01/04 05:41:41;;;;;;;0.95;0.43;;;19.00;46.90;;;;;;5168560;27;45293;-65
2024/01/04 05:44:08;;;;;;;1.25;0.45;;;19.10;46.90;;;;;;5169790;27;45186;-65
2024/01/04 05:46:34;;;;;;;0.90;0.55;;;19.10;46.90;;;;;;5173091;27;45197;-65
2024/01/04 05:49:03;;;;;;;1.45;0.68;;;19.10;46.80;;;;;;5172757;27;46556;-65
2024/01/04 05:51:30;;;;;;;0.65;0.50;;;19.10;46.70;;;;;;5172767;27;45318;-65
2024/01/04 05:53:56;;;;;;;1.05;0.38;;;19.20;46.70;;;;;;5172682;27;45293;-66
2024/01/04 05:56:23;;;;;;;3.03;0.70;;;19.10;46.60;;;;;;5172816;27;45173;-65
2024/01/04 05:58:50;;;;;;;1.05;0.40;;;19.20;46.70;;;;;;5172185;27;46407;-65
2024/01/04 06:01:17;;;;;;;1.25;0.57;;;19.20;46.60;;;;;;5172556;27;45316;-66
2024/01/04 06:03:44;;;;;;;0.60;0.52;;;19.20;46.50;;;;;;5172422;27;45253;-65
2024/01/04 06:06:15;;;;;;;1.90;0.55;;;19.30;46.50;;;;;;5172641;27;45275;-65
2024/01/04 06:08:41;;;;;;;3.05;0.57;;;19.30;46.40;;;;;;5172395;27;45269;-65
2024/01/04 06:11:08;;;;;;;0.50;0.30;;;19.30;46.40;;;;;;5172549;27;45335;-65
2024/01/04 06:13:35;;;;;;;0.38;0.30;;;19.30;46.40;;;;;;5172407;27;45475;-65
2024/01/04 06:16:06;;;;;;;2.25;0.65;;;19.30;46.30;;;;;;5172514;27;45381;-65
2024/01/04 06:18:32;;;;;;;0.50;0.35;;;19.30;46.30;;;;;;5171894;27;45369;-67
2024/01/04 06:20:59;;;;;;;0.52;0.40;;;19.30;46.20;;;;;;5171281;27;45418;-64
2024/01/04 06:23:28;;;;;;;1.10;0.35;;;19.30;46.20;;;;;;5171740;27;45384;-65
2024/01/04 06:25:55;;;;;;;0.80;0.68;;;19.40;46.20;;;;;;5172346;27;45174;-65
2024/01/04 06:28:22;;;;;;;0.40;0.40;;;19.30;46.10;;;;;;5171839;27;45195;-65
2024/01/04 06:30:49;;;;;;;0.82;0.55;;;19.40;46.30;;;;;;5171762;27;45397;-64
2024/01/04 06:33:16;;;;;;;0.95;0.50;;;19.40;46.10;;;;;;5172049;27;45421;-64
2024/01/04 06:35:43;;;;;;;1.55;0.25;;;19.40;46.00;;;;;;5172142;27;45401;-65
2024/01/04 06:38:10;;;;;;;2.88;0.55;;;19.40;46.00;;;;;;5171590;27;46708;-65
2024/01/04 06:40:38;;;;;;;1.83;0.63;;;19.40;46.00;;;;;;5171566;27;45196;-65
2024/01/04 06:43:08;;;;;;;0.93;0.60;;;19.50;46.00;;;;;;5171559;27;45444;-65
2024/01/04 06:45:35;;;;;;;0.38;0.32;;;19.50;46.00;;;;;;5172067;27;45267;-65
2024/01/04 06:48:02;;;;;;;0.85;0.40;;;19.50;45.90;;;;;;5171326;27;45264;-65
2024/01/04 06:50:29;;;;;;;0.32;0.20;;;19.50;45.90;;;;;;5171597;27;45369;-65
2024/01/04 06:52:55;;;;;;;1.35;0.50;;;19.50;45.90;;;;;;5171550;27;45339;-64
2024/01/04 06:55:23;;;;;;;1.05;0.45;;;19.50;45.90;;;;;;5171593;27;44730;-65
2024/01/04 06:57:51;;;;;;;1.33;0.60;;;19.50;45.90;;;;;;5170733;27;45268;-65
2024/01/04 07:00:18;;;;;;;1.20;0.50;;;19.60;45.80;;;;;;5171298;27;45176;-65
2024/01/04 07:02:45;;;;;;;2.25;0.40;;;19.60;45.80;;;;;;5171461;27;45297;-65
2024/01/04 07:05:12;;;;;;;0.57;0.38;;;19.60;45.80;;;;;;5171267;27;45346;-64
2024/01/04 07:07:39;;;;;;;0.45;0.40;;;19.50;45.80;;;;;;5170626;27;45448;-64
2024/01/04 07:10:07;;;;;;;0.60;0.45;;;19.60;45.80;;;;;;5170949;27;45238;-65
2024/01/04 07:12:34;;;;;;;0.50;0.47;;;19.50;45.70;;;;;;5171395;27;45291;-65
2024/01/04 07:15:02;;;;;;;2.08;0.50;;;19.60;45.70;;;;;;5171322;27;45236;-65
2024/01/04 07:17:29;;;;;;;1.30;0.40;;;19.60;45.60;;;;;;5170664;27;46406;-65
2024/01/04 07:19:55;;;;;;;0.50;0.32;;;19.60;45.70;;;;;;5171364;27;45204;-65
2024/01/04 07:22:22;;;;;;;0.93;0.60;;;19.60;45.70;;;;;;5171010;27;45240;-65
2024/01/04 07:24:49;;;;;;;0.47;0.40;;;19.60;45.60;;;;;;5171235;27;45319;-64
2024/01/04 07:27:16;;;;;;;0.98;0.47;;;19.60;45.60;;;;;;5169637;27;46405;-65
2024/01/04 07:29:43;;;;;;;0.40;0.30;;;19.60;46.20;;;;;;5149853;27;45301;-66
2024/01/04 07:32:11;;;;;;;0.93;0.63;;;19.70;45.60;;;;;;5149872;27;45245;-65
2024/01/04 07:34:38;;;;;;;0.50;0.40;;;19.60;45.50;;;;;;5150162;27;45524;-66
2024/01/04 07:37:05;;;;;;;0.43;0.40;;;19.70;45.60;;;;;;5149669;27;45368;-66
2024/01/04 07:39:32;;;;;;;1.20;0.65;;;19.70;45.60;;;;;;5149527;27;45296;-65
2024/01/04 07:41:59;;;;;;;2.58;0.63;;;19.60;45.50;;;;;;5149849;27;45201;-65
2024/01/04 07:44:26;;;;;;;2.72;0.75;;;19.60;45.50;;;;;;5150323;27;45134;-65
2024/01/04 07:46:53;;;;;;;2.13;0.60;;;19.60;45.50;;;;;;5149754;27;45266;-65
2024/01/04 07:49:21;;;;;;;1.73;0.40;;;19.70;45.50;;;;;;5149101;27;45420;-65
2024/01/04 07:51:48;;;;;;;2.20;0.63;;;19.70;45.50;;;;;;5149325;27;45351;-65
2024/01/04 07:54:15;;;;;;;2.45;0.60;;;19.70;45.50;;;;;;5149839;27;45211;-65
2024/01/04 07:56:42;;;;;;;2.20;0.50;;;19.60;45.50;;;;;;5148989;27;46639;-64
2024/01/04 07:59:09;;;;;;;3.65;0.85;;;19.60;45.50;;;;;;5149372;27;45374;-66
2024/01/04 08:01:36;;;;;;;1.52;0.50;;;19.70;45.30;;;;;;5148943;27;45333;-64
2024/01/04 08:04:03;;;;;;;3.42;0.63;;;19.60;45.30;;;;;;5149506;27;45402;-64
2024/01/04 08:06:32;;;;;;;2.15;0.50;;;19.60;45.40;;;;;;5164208;27;47579;-65
2024/01/04 08:08:59;;;;;;;1.83;0.77;;;19.60;45.40;;;;;;5169047;27;45365;-65
2024/01/04 08:11:26;;;;;;;4.47;0.70;;;19.60;45.40;;;;;;5167380;27;45416;-64
2024/01/04 08:13:53;;;;;;;1.65;0.80;;;19.60;45.40;;;;;;5170370;27;45398;-64
2024/01/04 08:16:19;;;;;;;0.43;0.43;;;19.60;45.50;;;;;;5169851;27;46387;-64
2024/01/04 08:18:46;;;;;;;0.95;0.82;;;19.70;45.50;;;;;;5170020;27;45303;-64
2024/01/04 08:21:13;;;;;;;1.23;0.60;;;19.70;45.40;;;;;;5170012;27;45286;-65
2024/01/04 08:23:42;;;;;;;1.67;0.80;;;19.70;45.40;;;;;;5170049;27;45300;-64
2024/01/04 08:26:09;;;;;;;1.92;0.52;;;19.60;45.30;;;;;;5169721;27;45752;-65
2024/01/04 08:28:36;;;;;;;3.45;0.88;;;19.70;45.40;;;;;;5169746;27;45184;-64
2024/01/04 08:31:03;;;;;;;1.00;0.60;;;19.60;45.30;;;;;;5170128;27;45218;-65
2024/01/04 08:33:30;;;;;;;2.92;0.77;;;19.70;45.40;;;;;;5169646;27;45382;-64
2024/01/04 08:35:57;;;;;;;1.85;0.85;;;19.70;45.30;;;;;;5169744;27;45312;-65
2024/01/04 08:38:24;;;;;;;2.53;0.75;;;19.70;45.30;;;;;;5169805;27;45317;-64
2024/01/04 08:41:03;;;;;;;0.80;0.40;;;19.70;45.30;;;;;;5165386;27;45334;-64
2024/01/04 08:43:30;;;;;;;1.45;0.70;;;19.70;45.30;;;;;;5166166;27;45275;-65
2024/01/04 08:45:57;;;;;;;3.38;0.93;;;19.70;45.30;;;;;;5165639;27;45292;-64
2024/01/04 08:48:24;;;;;;;1.27;0.70;;;19.70;45.30;;;;;;5165742;27;45401;-65
2024/01/04 08:50:50;;;;;;;2.15;0.80;;;19.70;45.30;;;;;;5165381;27;46400;-65
2024/01/04 08:53:20;;;;;;;1.60;0.60;;;19.70;45.20;;;;;;5165531;27;45152;-65
2024/01/04 08:55:47;;;;;;;4.38;1.08;;;19.70;45.20;;;;;;5165509;27;45447;-65
2024/01/04 08:58:16;;;;;;;1.40;0.85;;;19.70;45.20;;;;;;5165870;27;45538;-66
2024/01/04 09:00:43;;;;;;;1.48;0.70;;;19.70;45.20;;;;;;5165345;27;46655;-66
2024/01/04 09:03:09;;;;;;;1.20;0.63;;;19.70;45.20;;;;;;5165369;27;45216;-66
2024/01/04 09:05:36;;;;;;;1.67;0.93;;;19.70;45.20;;;;;;5165288;27;45313;-66
2024/01/04 09:08:05;;;;;;;3.17;0.80;;;19.70;45.20;;;;;;5165527;27;45238;-65
2024/01/04 09:10:32;;;;;;;1.30;0.70;;;19.70;45.20;;;;;;5164974;27;45921;-66
2024/01/04 09:12:59;;;;;;;2.10;0.63;;;19.70;45.10;;;;;;5164975;27;45248;-66
2024/01/04 09:15:27;;;;;;;2.42;1.10;;;19.70;45.10;;;;;;5165146;27;45282;-66
2024/01/04 09:17:55;;;;;;;3.22;1.10;;;19.70;45.10;;;;;;5165213;27;45272;-66
2024/01/04 09:20:22;;;;;;;2.13;0.68;;;19.70;45.10;;;;;;5164475;27;46395;-66
2024/01/04 09:22:49;;;;;;;2.78;0.98;;;19.80;45.10;;;;;;5164695;27;45290;-66
2024/01/04 09:25:16;;;;;;;1.35;0.80;;;19.80;45.10;;;;;;5165002;27;45243;-65
2024/01/04 09:27:43;;;;;;;1.92;0.98;;;19.70;45.10;;;;;;5165088;27;45400;-66
2024/01/04 09:30:11;;;;;;;0.73;0.65;;;19.70;45.10;;;;;;5165012;27;47710;-66
2024/01/04 09:32:39;;;;;;;3.95;1.02;;;19.80;45.10;;;;;;5164908;27;45201;-66
2024/01/04 09:35:06;;;;;;;5.90;0.85;;;19.80;45.70;;;;;;5164896;27;45202;-65
2024/01/04 09:37:33;;;;;;;2.78;0.85;;;19.80;45.00;;;;;;5164917;27;45415;-66
2024/01/04 09:40:00;;;;;;;2.10;0.65;;;19.80;45.00;;;;;;5164208;27;46705;-66
2024/01/04 09:42:30;;;;;;;2.67;1.05;;;19.80;45.00;;;;;;5164240;27;45300;-66
2024/01/04 09:44:58;;;;;;;3.50;1.00;;;19.80;45.10;;;;;;5164571;27;45321;-67
2024/01/04 09:47:24;;;;;;;2.80;0.90;;;19.90;45.20;;;;;;5164661;27;45424;-66
2024/01/04 09:49:53;;;;;;;2.58;1.27;;;19.90;45.10;;;;;;5163716;27;46389;-66
2024/01/04 09:52:20;;;;;;;4.93;1.00;;;19.90;45.20;;;;;;5150013;27;45194;-67
2024/01/04 09:54:47;;;;;;;1.70;0.80;;;19.90;45.20;;;;;;5150772;27;45298;-66
2024/01/04 09:57:14;;;;;;;5.18;1.13;;;19.90;45.30;;;;;;5150525;27;45446;-66
2024/01/04 09:59:41;;;;;;;4.28;1.70;;;19.90;45.30;;;;;;5149536;27;47272;-66
2024/01/04 10:02:08;;;;;;;2.50;1.35;;;20.00;45.30;;;;;;5149634;27;45186;-66
2024/01/04 10:04:38;;;;;;;1.20;1.00;;;20.00;45.20;;;;;;5150279;27;45287;-65
2024/01/04 10:07:06;;;;;;;4.72;1.40;;;20.00;45.20;;;;;;5150062;27;45574;-65
2024/01/04 10:09:36;;;;;;;2.42;1.10;;;20.10;45.10;;;;;;5149986;27;45231;-64
2024/01/04 10:12:08;;;;;;;3.67;0.80;;;20.10;45.10;;;;;;5150458;27;45384;-64
2024/01/04 10:14:35;;;;;;;2.05;1.00;;;20.10;45.30;;;;;;5150009;27;45261;-66
2024/01/04 10:17:02;;;;;;;9.40;1.38;;;20.00;45.30;;;;;;5148709;27;45486;-67
2024/01/04 10:19:29;;;;;;;6.00;1.40;;;20.10;45.60;;;;;;5145126;27;45585;-65
2024/01/04 10:22:01;;;;;;;4.80;1.60;;;20.10;45.90;;;;;;5148694;27;45425;-66
2024/01/04 10:24:29;;;;;;;7.55;1.42;;;20.10;45.70;;;;;;5146029;27;45469;-68
2024/01/04 10:26:57;;;;;;;7.82;1.38;;;20.20;45.90;;;;;;5150257;27;45444;-64
2024/01/04 10:29:25;;;;;;;1.50;1.08;;;20.20;45.80;;;;;;5149699;27;46946;-66
2024/01/04 10:31:59;;;;;;;2.90;1.23;;;20.20;45.60;;;;;;5149919;27;45450;-66
2024/01/04 10:34:26;;;;;;;5.30;1.60;;;20.20;45.70;;;;;;5131441;27;45420;-65
2024/01/04 10:36:54;;;;;;;3.60;1.20;;;20.20;45.80;;;;;;5147916;27;45444;-65
2024/01/04 10:39:21;;;;;;;2.85;1.23;;;20.30;45.70;;;;;;5148622;27;45424;-65
2024/01/04 10:41:59;;;;;;;3.80;1.63;;;20.30;45.70;;;;;;5149153;27;45184;-64
2024/01/04 10:44:26;;;;;;;1.92;1.20;;;20.40;45.60;;;;;;5149398;27;45252;-66
2024/01/04 10:46:55;;;;;;;1.23;1.10;;;20.40;45.60;;;;;;5149599;27;45323;-66
2024/01/04 10:49:23;;;;;;;5.47;1.20;;;20.50;45.50;;;;;;5148517;27;45417;-66
2024/01/04 10:51:51;;;;;;;3.75;1.38;;;20.40;45.40;;;;;;5148989;27;45238;-66
2024/01/04 10:54:18;;;;;;;3.50;1.42;;;20.40;45.60;;;;;;5149694;27;45367;-65
2024/01/04 10:56:44;;;;;;;1.83;1.30;;;20.40;45.70;;;;;;5149571;27;45414;-64
2024/01/04 10:59:13;;;;;;;6.10;1.50;;;20.30;45.70;;;;;;5149480;27;46392;-64
2024/01/04 11:01:40;;;;;;;1.63;1.30;;;20.30;45.80;;;;;;5148503;27;45293;-65
2024/01/04 11:04:07;;;;;;;3.53;1.60;;;20.30;45.80;;;;;;5148278;27;45282;-66
2024/01/04 11:06:40;;;;;;;4.55;1.80;;;20.30;45.80;;;;;;5149517;27;45464;-64
2024/01/04 11:09:07;;;;;;;8.13;2.10;;;20.40;45.70;;;;;;5127864;27;46372;-65
2024/01/04 11:11:34;;;;;;;4.35;1.80;;;20.30;45.60;;;;;;5127915;27;45314;-64
2024/01/04 11:14:01;;;;;;;4.10;1.60;;;20.30;45.70;;;;;;5148921;27;45365;-64
2024/01/04 11:16:37;;;;;;;4.53;1.45;;;20.30;45.90;;;;;;5146644;27;45492;-64
2024/01/04 11:19:09;;;;;;;9.40;1.88;;;20.30;45.90;;;;;;5148602;27;46383;-64
2024/01/04 11:21:50;;;;;;;4.35;1.55;;;20.40;45.80;;;;;;5148457;27;45376;-64
2024/01/04 11:24:23;;;;;;;4.90;1.58;;;20.40;45.60;;;;;;5148815;27;45245;-65
2024/01/04 11:26:56;;;;;;;4.75;1.70;;;20.40;45.70;;;;;;5149070;27;45223;-64
2024/01/04 11:29:23;;;;;;;3.38;1.58;;;20.30;45.80;;;;;;5148697;27;47543;-64
2024/01/04 11:31:51;;;;;;;3.45;2.00;;;20.30;45.90;;;;;;5148657;27;45185;-66
2024/01/04 11:34:19;;;;;;;6.03;2.25;;;20.30;45.90;;;;;;5149044;27;45308;-65
2024/01/04 11:36:54;;;;;;;2.97;1.95;;;20.40;45.90;;;;;;5149087;27;45405;-62
2024/01/04 11:39:26;;;;;;;4.18;1.95;;;20.40;45.90;;;;;;5147961;27;46658;-63
2024/01/04 11:41:53;;;;;;;6.82;2.00;;;20.30;45.80;;;;;;5148197;27;45308;-65
2024/01/04 11:44:20;;;;;;;4.35;2.08;;;20.40;45.90;;;;;;5148408;27;45296;-65
2024/01/04 11:46:47;;;;;;;6.65;2.05;;;20.40;45.90;;;;;;5147928;27;45495;-64
2024/01/04 11:49:15;;;;;;;9.60;1.98;;;20.30;46.00;;;;;;5147685;27;47415;-65
2024/01/04 11:51:44;;;;;;;9.70;2.35;;;20.20;46.20;;;;;;5147919;27;45214;-65
2024/01/04 11:54:12;;;;;;;7.43;1.90;;;20.10;46.50;;;;;;5146705;27;45304;-67
2024/01/04 11:56:39;;;;;;;3.95;1.90;;;20.10;46.70;;;;;;5148151;27;45468;-64
2024/01/04 11:59:10;;;;;;;7.32;1.77;;;20.00;46.80;;;;;;5147227;27;46218;-63
2024/01/04 12:01:38;;;;;;;6.47;2.20;;;20.00;46.90;;;;;;5147342;27;45425;-65
2024/01/04 12:04:09;;;;;;;4.15;2.00;;;19.90;47.10;;;;;;5147448;27;45202;-64
2024/01/04 12:06:39;;;;;;;2.80;1.90;;;19.80;47.10;;;;;;5143512;27;45411;-65
2024/01/04 12:09:06;;;;;;;6.00;2.25;;;19.80;47.20;;;;;;5147355;27;47690;-65
2024/01/04 12:11:33;;;;;;;5.00;2.15;;;19.80;47.30;;;;;;5147571;27;45544;-65
2024/01/04 12:14:02;;;;;;;4.25;1.55;;;19.80;47.20;;;;;;5147079;27;45373;-64
2024/01/04 12:16:29;;;;;;;2.92;1.90;;;19.80;47.20;;;;;;5147647;27;45650;-66
2024/01/04 12:18:56;;;;;;;3.58;1.90;;;19.90;47.10;;;;;;5140603;27;46464;-64
2024/01/04 12:21:23;;;;;;;5.75;2.20;;;19.90;46.90;;;;;;5143188;27;45398;-64
2024/01/04 12:23:52;;;;;;;4.35;2.30;;;20.00;46.90;;;;;;5143934;27;45356;-64
2024/01/04 12:26:23;;;;;;;6.70;2.38;;;20.10;46.70;;;;;;5146949;27;45725;-65
2024/01/04 12:28:49;;;;;;;5.05;2.00;;;20.20;46.50;;;;;;5141999;27;47579;-65
2024/01/04 12:31:16;;;;;;;5.05;2.42;;;20.30;46.40;;;;;;5146598;27;45389;-64
2024/01/04 12:33:44;;;;;;;3.90;2.13;;;20.40;46.20;;;;;;5146105;27;45296;-65
2024/01/04 12:36:11;;;;;;;6.97;2.20;;;20.40;46.10;;;;;;5152731;27;45517;-64
2024/01/04 12:38:38;;;;;;;9.93;2.30;;;20.50;46.00;;;;;;5146873;27;46668;-64
2024/01/04 12:41:06;;;;;;;5.35;1.90;;;20.60;45.70;;;;;;5147079;27;45388;-63
2024/01/04 12:43:33;;;;;;;4.50;2.05;;;20.60;45.60;;;;;;5147532;27;45198;-64
2024/01/04 12:46:04;;;;;;;4.07;2.00;;;20.60;45.50;;;;;;5147551;27;45296;-64
2024/01/04 12:48:31;;;;;;;6.22;2.22;;;20.60;45.50;;;;;;5147208;27;45365;-64